CCA917 ZHCC-ZBAA
Flight info
| Callsign | CCA917 |
|---|---|
| Flight time | N/A |
| Altitude | 29100 |
| Route | OKTOX W56 DUGEB |
| Aircraft | L101/H-SDFGHIRWXY/S |
Departure
| Time | 2026-05-07 11:53 |
|---|---|
| Airport | Zhengzhou Xinzheng International Airport (ZHCC) |
Arrival
| Time | N/A |
|---|---|
| Airport | Beijing Capital International Airport (ZBAA) |
| Time | Latitude | Longitude | Altitude | Speed | Heading |
|---|---|---|---|---|---|
| 2026-05-07 11:35 | 34.53252 | 113.84966 | 510 ft | 0 kts | 202° |
| 2026-05-07 11:44 | 34.53264 | 113.84972 | 510 ft | 4 kts | 202° |
| 2026-05-07 11:44 | 34.53289 | 113.84985 | 510 ft | 4 kts | 202° |
| 2026-05-07 11:44 | 34.53313 | 113.84997 | 510 ft | 4 kts | 209° |
| 2026-05-07 11:44 | 34.53332 | 113.85017 | 509 ft | 4 kts | 244° |
| 2026-05-07 11:45 | 34.53337 | 113.85047 | 509 ft | 4 kts | 279° |
| 2026-05-07 11:45 | 34.53330 | 113.85078 | 509 ft | 4 kts | 292° |
| 2026-05-07 11:45 | 34.53325 | 113.85092 | 509 ft | 5 kts | 292° |
| 2026-05-07 11:47 | 34.53326 | 113.85091 | 509 ft | 1 kts | 292° |
| 2026-05-07 11:47 | 34.53334 | 113.85068 | 509 ft | 5 kts | 292° |
| 2026-05-07 11:48 | 34.53352 | 113.85013 | 509 ft | 9 kts | 292° |
| 2026-05-07 11:48 | 34.53378 | 113.84936 | 509 ft | 11 kts | 292° |
| 2026-05-07 11:48 | 34.53409 | 113.84860 | 510 ft | 10 kts | 314° |
| 2026-05-07 11:48 | 34.53471 | 113.84859 | 509 ft | 10 kts | 350° |
| 2026-05-07 11:49 | 34.53517 | 113.84800 | 509 ft | 11 kts | 292° |
| 2026-05-07 11:49 | 34.53549 | 113.84705 | 509 ft | 14 kts | 292° |
| 2026-05-07 11:49 | 34.53587 | 113.84593 | 509 ft | 15 kts | 292° |
| 2026-05-07 11:49 | 34.53629 | 113.84468 | 509 ft | 17 kts | 292° |
| 2026-05-07 11:50 | 34.53677 | 113.84328 | 509 ft | 19 kts | 292° |
| 2026-05-07 11:50 | 34.53728 | 113.84177 | 509 ft | 20 kts | 292° |
| 2026-05-07 11:50 | 34.53765 | 113.84071 | 509 ft | 11 kts | 292° |
| 2026-05-07 11:50 | 34.53798 | 113.84012 | 509 ft | 8 kts | 329° |
| 2026-05-07 11:51 | 34.53857 | 113.84023 | 509 ft | 10 kts | 23° |
| 2026-05-07 11:51 | 34.53900 | 113.84045 | 508 ft | 4 kts | 21° |
| 2026-05-07 11:51 | 34.53928 | 113.84060 | 509 ft | 4 kts | 31° |
| 2026-05-07 11:51 | 34.53936 | 113.84085 | 509 ft | 4 kts | 94° |
| 2026-05-07 11:52 | 34.53932 | 113.84127 | 509 ft | 6 kts | 103° |
| 2026-05-07 11:52 | 34.53923 | 113.84151 | 508 ft | 1 kts | 114° |
| 2026-05-07 11:52 | 34.53874 | 113.84293 | 508 ft | 52 kts | 111° |
| 2026-05-07 11:52 | 34.53630 | 113.85019 | 506 ft | 132 kts | 114° |
| 2026-05-07 11:53 | 34.53207 | 113.86277 | 803 ft | 177 kts | 110° |
| 2026-05-07 11:53 | 34.52719 | 113.87729 | 1634 ft | 194 kts | 109° |
| 2026-05-07 11:53 | 34.52182 | 113.89335 | 2315 ft | 216 kts | 109° |
| 2026-05-07 11:53 | 34.51573 | 113.91144 | 2275 ft | 248 kts | 110° |
| 2026-05-07 11:54 | 34.50888 | 113.93150 | 2617 ft | 258 kts | 110° |
| 2026-05-07 11:54 | 34.50208 | 113.95126 | 3475 ft | 253 kts | 110° |
| 2026-05-07 11:54 | 34.49527 | 113.97111 | 4132 ft | 260 kts | 110° |
| 2026-05-07 11:54 | 34.48828 | 113.99167 | 4707 ft | 268 kts | 110° |
| 2026-05-07 11:55 | 34.48108 | 114.01293 | 5231 ft | 277 kts | 110° |
| 2026-05-07 11:55 | 34.47362 | 114.03491 | 5737 ft | 286 kts | 110° |
| 2026-05-07 11:55 | 34.46600 | 114.05705 | 6375 ft | 289 kts | 110° |
| 2026-05-07 11:55 | 34.45809 | 114.07961 | 6994 ft | 292 kts | 109° |
| 2026-05-07 11:56 | 34.45077 | 114.10261 | 7554 ft | 295 kts | 102° |
| 2026-05-07 11:56 | 34.44546 | 114.12684 | 8062 ft | 299 kts | 98° |
| 2026-05-07 11:56 | 34.44034 | 114.15131 | 8705 ft | 300 kts | 99° |
| 2026-05-07 11:56 | 34.43459 | 114.17551 | 9433 ft | 299 kts | 100° |
| 2026-05-07 11:57 | 34.42930 | 114.19993 | 9983 ft | 302 kts | 96° |
| 2026-05-07 11:57 | 34.42466 | 114.22498 | 10400 ft | 309 kts | 96° |
| 2026-05-07 11:57 | 34.42020 | 114.25070 | 10817 ft | 314 kts | 96° |
| 2026-05-07 11:57 | 34.41590 | 114.27673 | 11374 ft | 314 kts | 96° |
| 2026-05-07 11:58 | 34.41177 | 114.30260 | 12009 ft | 312 kts | 96° |
| 2026-05-07 11:58 | 34.40757 | 114.32839 | 12529 ft | 314 kts | 96° |
| 2026-05-07 11:58 | 34.40491 | 114.35491 | 12827 ft | 320 kts | 87° |
| 2026-05-07 11:58 | 34.40565 | 114.38195 | 13168 ft | 323 kts | 79° |
| 2026-05-07 11:59 | 34.40966 | 114.40866 | 13656 ft | 322 kts | 71° |
| 2026-05-07 11:59 | 34.41609 | 114.43450 | 14232 ft | 318 kts | 66° |
| 2026-05-07 11:59 | 34.42367 | 114.45912 | 14755 ft | 315 kts | 64° |
| 2026-05-07 11:59 | 34.43213 | 114.48389 | 15088 ft | 321 kts | 62° |
| 2026-05-07 12:00 | 34.44134 | 114.50872 | 15385 ft | 325 kts | 56° |
| 2026-05-07 12:00 | 34.45505 | 114.53034 | 15497 ft | 326 kts | 34° |
| 2026-05-07 12:00 | 34.47476 | 114.54312 | 15769 ft | 320 kts | 12° |
| 2026-05-07 12:00 | 34.49585 | 114.54957 | 16575 ft | 304 kts | 9° |
| 2026-05-07 12:01 | 34.51581 | 114.55629 | 17424 ft | 293 kts | 12° |
| 2026-05-07 12:01 | 34.53546 | 114.56332 | 17782 ft | 298 kts | 10° |
| 2026-05-07 12:01 | 34.55605 | 114.56921 | 17839 ft | 311 kts | 6° |
| 2026-05-07 12:01 | 34.57785 | 114.57329 | 18188 ft | 321 kts | 2° |
| 2026-05-07 12:02 | 34.59999 | 114.57616 | 18865 ft | 318 kts | 1° |
| 2026-05-07 12:02 | 34.62180 | 114.57864 | 19662 ft | 311 kts | 0° |
| 2026-05-07 12:02 | 34.64334 | 114.58104 | 20248 ft | 314 kts | 359° |
| 2026-05-07 12:02 | 34.66541 | 114.58337 | 20615 ft | 323 kts | 359° |
| 2026-05-07 12:03 | 34.68806 | 114.58563 | 20984 ft | 331 kts | 359° |
| 2026-05-07 12:03 | 34.71119 | 114.58788 | 21434 ft | 335 kts | 358° |
| 2026-05-07 12:03 | 34.72660 | 114.58939 | 21822 ft | 335 kts | 358° |
| 2026-05-07 12:03 | 34.75764 | 114.59247 | 22727 ft | 334 kts | 358° |
| 2026-05-07 12:04 | 34.77314 | 114.59396 | 22975 ft | 343 kts | 357° |
| 2026-05-07 12:04 | 34.79702 | 114.59619 | 23120 ft | 345 kts | 357° |
| 2026-05-07 12:04 | 34.82140 | 114.59846 | 23293 ft | 359 kts | 357° |
| 2026-05-07 12:04 | 34.84674 | 114.60079 | 23937 ft | 367 kts | 357° |
| 2026-05-07 12:05 | 34.87991 | 114.60416 | 25060 ft | 347 kts | 356° |
| 2026-05-07 12:05 | 34.89570 | 114.60585 | 25467 ft | 342 kts | 356° |
| 2026-05-07 12:05 | 34.91958 | 114.60822 | 25666 ft | 348 kts | 355° |
| 2026-05-07 12:05 | 34.94405 | 114.61038 | 25773 ft | 356 kts | 355° |
| 2026-05-07 12:06 | 34.96893 | 114.61259 | 25924 ft | 361 kts | 355° |
| 2026-05-07 12:06 | 34.99403 | 114.61495 | 26033 ft | 362 kts | 355° |
| 2026-05-07 12:06 | 35.01913 | 114.61742 | 26152 ft | 362 kts | 355° |
| 2026-05-07 12:06 | 35.04431 | 114.61990 | 26276 ft | 363 kts | 355° |
| 2026-05-07 12:07 | 35.06958 | 114.62234 | 26385 ft | 364 kts | 355° |
| 2026-05-07 12:07 | 35.09482 | 114.62476 | 26517 ft | 364 kts | 355° |
| 2026-05-07 12:07 | 35.11993 | 114.62716 | 26665 ft | 366 kts | 354° |
| 2026-05-07 12:07 | 35.14533 | 114.62960 | 26791 ft | 368 kts | 354° |
| 2026-05-07 12:08 | 35.17096 | 114.63204 | 26915 ft | 369 kts | 354° |
| 2026-05-07 12:08 | 35.19663 | 114.63450 | 27039 ft | 371 kts | 354° |
| 2026-05-07 12:08 | 35.22239 | 114.63699 | 27159 ft | 371 kts | 354° |
| 2026-05-07 12:08 | 35.24826 | 114.63949 | 27283 ft | 372 kts | 354° |
| 2026-05-07 12:09 | 35.27416 | 114.64199 | 27408 ft | 373 kts | 354° |
| 2026-05-07 12:09 | 35.30011 | 114.64449 | 27532 ft | 374 kts | 354° |
| 2026-05-07 12:09 | 35.32608 | 114.64700 | 27661 ft | 375 kts | 354° |
| 2026-05-07 12:09 | 35.35210 | 114.64952 | 27811 ft | 376 kts | 354° |
| 2026-05-07 12:10 | 35.37823 | 114.65204 | 27938 ft | 377 kts | 354° |
| 2026-05-07 12:10 | 35.40411 | 114.65454 | 28067 ft | 378 kts | 354° |
| 2026-05-07 12:10 | 35.43044 | 114.65708 | 28202 ft | 379 kts | 354° |
| 2026-05-07 12:10 | 35.45676 | 114.65963 | 28325 ft | 380 kts | 354° |
| 2026-05-07 12:11 | 35.48319 | 114.66219 | 28455 ft | 381 kts | 354° |
| 2026-05-07 12:11 | 35.50969 | 114.66475 | 28585 ft | 383 kts | 354° |
| 2026-05-07 12:11 | 35.53629 | 114.66733 | 28717 ft | 384 kts | 354° |
| 2026-05-07 12:11 | 35.56295 | 114.66992 | 28883 ft | 385 kts | 354° |
| 2026-05-07 12:12 | 35.58970 | 114.67252 | 29007 ft | 386 kts | 353° |
| 2026-05-07 12:12 | 35.61661 | 114.67513 | 29175 ft | 388 kts | 353° |
| 2026-05-07 12:12 | 35.64362 | 114.67773 | 29246 ft | 391 kts | 353° |
| 2026-05-07 12:13 | 35.69903 | 114.68292 | 29271 ft | 417 kts | 354° |
| 2026-05-07 12:13 | 35.72879 | 114.68552 | 29279 ft | 439 kts | 354° |
| 2026-05-07 12:13 | 35.75997 | 114.68836 | 29278 ft | 459 kts | 355° |
| 2026-05-07 12:13 | 35.79244 | 114.69149 | 29306 ft | 479 kts | 355° |
| 2026-05-07 12:14 | 35.82636 | 114.69487 | 29282 ft | 497 kts | 355° |
| 2026-05-07 12:14 | 35.89632 | 114.70201 | 29272 ft | 507 kts | 356° |
| 2026-05-07 12:15 | 35.96623 | 114.70918 | 29269 ft | 507 kts | 355° |
| 2026-05-07 12:15 | 36.03648 | 114.71617 | 29294 ft | 503 kts | 355° |
| 2026-05-07 12:16 | 36.10614 | 114.72306 | 29278 ft | 500 kts | 355° |
| 2026-05-07 12:16 | 36.17547 | 114.72990 | 29274 ft | 499 kts | 355° |
| 2026-05-07 12:17 | 36.24463 | 114.73674 | 29270 ft | 499 kts | 355° |
| 2026-05-07 12:17 | 36.31392 | 114.74358 | 29272 ft | 499 kts | 355° |
| 2026-05-07 12:18 | 36.38280 | 114.76108 | 29229 ft | 523 kts | 14° |
| 2026-05-07 12:18 | 36.44870 | 114.79948 | 29318 ft | 525 kts | 14° |
| 2026-05-07 12:19 | 36.51627 | 114.83389 | 29276 ft | 520 kts | 13° |
| 2026-05-07 12:19 | 36.58265 | 114.87021 | 29262 ft | 523 kts | 15° |
| 2026-05-07 12:20 | 36.64821 | 114.90829 | 29301 ft | 523 kts | 15° |
| 2026-05-07 12:20 | 36.71410 | 114.94635 | 29268 ft | 521 kts | 15° |
| 2026-05-07 12:21 | 36.77986 | 114.98449 | 29265 ft | 521 kts | 15° |
| 2026-05-07 12:21 | 36.84567 | 115.02285 | 29296 ft | 522 kts | 15° |
| 2026-05-07 12:22 | 36.91148 | 115.06131 | 29264 ft | 521 kts | 14° |
| 2026-05-07 12:22 | 36.97666 | 115.09947 | 29258 ft | 521 kts | 14° |
| 2026-05-07 12:23 | 37.04239 | 115.13803 | 29312 ft | 519 kts | 14° |
| 2026-05-07 12:23 | 37.10743 | 115.17635 | 29261 ft | 515 kts | 14° |
| 2026-05-07 12:24 | 37.17232 | 115.21442 | 29255 ft | 514 kts | 14° |
| 2026-05-07 12:24 | 37.23664 | 115.25232 | 29288 ft | 514 kts | 14° |
| 2026-05-07 12:25 | 37.30123 | 115.29051 | 29251 ft | 512 kts | 13° |
| 2026-05-07 12:25 | 37.36567 | 115.32867 | 29248 ft | 512 kts | 13° |
| 2026-05-07 12:26 | 37.43014 | 115.36689 | 29281 ft | 513 kts | 13° |
| 2026-05-07 12:26 | 37.49466 | 115.40525 | 29246 ft | 512 kts | 13° |
| 2026-05-07 12:27 | 37.55896 | 115.44355 | 29241 ft | 511 kts | 13° |
| 2026-05-07 12:27 | 37.62337 | 115.48195 | 29273 ft | 511 kts | 13° |
| 2026-05-07 12:27 | 37.65545 | 115.50113 | 28991 ft | 510 kts | 13° |
| 2026-05-07 12:28 | 37.68744 | 115.52029 | 28572 ft | 507 kts | 14° |
| 2026-05-07 12:28 | 37.71926 | 115.53939 | 28169 ft | 502 kts | 14° |
| 2026-05-07 12:28 | 37.75060 | 115.55822 | 27776 ft | 494 kts | 13° |
| 2026-05-07 12:28 | 37.78211 | 115.57288 | 27340 ft | 470 kts | 2° |
| 2026-05-07 12:29 | 37.81349 | 115.57686 | 26959 ft | 442 kts | 350° |
| 2026-05-07 12:29 | 37.84351 | 115.57509 | 26626 ft | 436 kts | 349° |
| 2026-05-07 12:29 | 37.87395 | 115.57430 | 26247 ft | 437 kts | 352° |
| 2026-05-07 12:29 | 37.90428 | 115.57522 | 25881 ft | 435 kts | 353° |
| 2026-05-07 12:30 | 37.93440 | 115.57596 | 25511 ft | 430 kts | 352° |
| 2026-05-07 12:30 | 37.96409 | 115.57533 | 25155 ft | 424 kts | 351° |
| 2026-05-07 12:30 | 37.99345 | 115.57354 | 24793 ft | 420 kts | 350° |
| 2026-05-07 12:30 | 38.02250 | 115.57135 | 24465 ft | 416 kts | 350° |
| 2026-05-07 12:31 | 38.05128 | 115.56925 | 24122 ft | 413 kts | 351° |
| 2026-05-07 12:31 | 38.07992 | 115.56746 | 23778 ft | 410 kts | 352° |
| 2026-05-07 12:31 | 38.10831 | 115.56611 | 23384 ft | 407 kts | 352° |
| 2026-05-07 12:31 | 38.13648 | 115.56459 | 22976 ft | 404 kts | 352° |
| 2026-05-07 12:32 | 38.16449 | 115.56274 | 22565 ft | 402 kts | 352° |
| 2026-05-07 12:32 | 38.19234 | 115.56075 | 22162 ft | 400 kts | 352° |
| 2026-05-07 12:32 | 38.22013 | 115.55878 | 21771 ft | 399 kts | 353° |
| 2026-05-07 12:32 | 38.24802 | 115.55950 | 21228 ft | 405 kts | 3° |
| 2026-05-07 12:33 | 38.30124 | 115.58544 | 19959 ft | 412 kts | 20° |
| 2026-05-07 12:33 | 38.32713 | 115.60061 | 19349 ft | 407 kts | 17° |
| 2026-05-07 12:33 | 38.35326 | 115.61395 | 18803 ft | 402 kts | 16° |
| 2026-05-07 12:34 | 38.37917 | 115.62705 | 18416 ft | 400 kts | 18° |
| 2026-05-07 12:34 | 38.40474 | 115.64129 | 18030 ft | 401 kts | 20° |
| 2026-05-07 12:34 | 38.42957 | 115.65644 | 17642 ft | 400 kts | 21° |
| 2026-05-07 12:34 | 38.45448 | 115.67221 | 17243 ft | 399 kts | 22° |
| 2026-05-07 12:35 | 38.47893 | 115.68774 | 16846 ft | 384 kts | 22° |
| 2026-05-07 12:35 | 38.50208 | 115.70336 | 16450 ft | 368 kts | 24° |
| 2026-05-07 12:35 | 38.52427 | 115.71810 | 16100 ft | 352 kts | 22° |
| 2026-05-07 12:35 | 38.54580 | 115.73131 | 15927 ft | 334 kts | 21° |
| 2026-05-07 12:36 | 38.56631 | 115.74350 | 15860 ft | 320 kts | 20° |
| 2026-05-07 12:36 | 38.58656 | 115.75568 | 15847 ft | 325 kts | 21° |
| 2026-05-07 12:36 | 38.60710 | 115.76831 | 15799 ft | 330 kts | 21° |
| 2026-05-07 12:36 | 38.62786 | 115.78132 | 15464 ft | 332 kts | 22° |
| 2026-05-07 12:37 | 38.64821 | 115.79520 | 15075 ft | 331 kts | 28° |
| 2026-05-07 12:37 | 38.66681 | 115.81252 | 14697 ft | 331 kts | 35° |
| 2026-05-07 12:37 | 38.68435 | 115.83144 | 14342 ft | 329 kts | 36° |
| 2026-05-07 12:37 | 38.70208 | 115.84985 | 13981 ft | 327 kts | 34° |
| 2026-05-07 12:38 | 38.71998 | 115.86706 | 13590 ft | 324 kts | 31° |
| 2026-05-07 12:38 | 38.73913 | 115.88263 | 13185 ft | 320 kts | 27° |
| 2026-05-07 12:38 | 38.75815 | 115.89660 | 12794 ft | 318 kts | 26° |
| 2026-05-07 12:38 | 38.77728 | 115.91069 | 12404 ft | 316 kts | 27° |
| 2026-05-07 12:39 | 38.79613 | 115.92494 | 12118 ft | 313 kts | 27° |
| 2026-05-07 12:39 | 38.81477 | 115.93919 | 11978 ft | 311 kts | 27° |
| 2026-05-07 12:39 | 38.83342 | 115.95340 | 11935 ft | 312 kts | 27° |
| 2026-05-07 12:39 | 38.85207 | 115.96759 | 11914 ft | 311 kts | 27° |
| 2026-05-07 12:40 | 38.87068 | 115.98174 | 11903 ft | 311 kts | 27° |
| 2026-05-07 12:40 | 38.88924 | 115.99586 | 11898 ft | 311 kts | 27° |
| 2026-05-07 12:40 | 38.90780 | 116.01000 | 11898 ft | 311 kts | 27° |
| 2026-05-07 12:40 | 38.92644 | 116.02421 | 11900 ft | 311 kts | 27° |
| 2026-05-07 12:41 | 38.94503 | 116.03840 | 11901 ft | 311 kts | 27° |
| 2026-05-07 12:41 | 38.96360 | 116.05258 | 11898 ft | 311 kts | 27° |
| 2026-05-07 12:41 | 38.98218 | 116.06678 | 11900 ft | 311 kts | 27° |
| 2026-05-07 12:41 | 39.00081 | 116.08102 | 11899 ft | 311 kts | 27° |
| 2026-05-07 12:42 | 39.01939 | 116.09525 | 11900 ft | 311 kts | 27° |
| 2026-05-07 12:42 | 39.03805 | 116.10954 | 11899 ft | 311 kts | 27° |
| 2026-05-07 12:42 | 39.05669 | 116.12384 | 11899 ft | 311 kts | 27° |
| 2026-05-07 12:42 | 39.07529 | 116.13811 | 11898 ft | 312 kts | 27° |
| 2026-05-07 12:43 | 39.09388 | 116.15239 | 11900 ft | 312 kts | 27° |
| 2026-05-07 12:43 | 39.11250 | 116.16670 | 11901 ft | 312 kts | 27° |
| 2026-05-07 12:43 | 39.13115 | 116.18105 | 11901 ft | 311 kts | 27° |
| 2026-05-07 12:43 | 39.14979 | 116.19541 | 11899 ft | 312 kts | 27° |
| 2026-05-07 12:44 | 39.16845 | 116.20979 | 11801 ft | 311 kts | 27° |
| 2026-05-07 12:44 | 39.18670 | 116.22391 | 11538 ft | 301 kts | 27° |
| 2026-05-07 12:44 | 39.20439 | 116.23766 | 11279 ft | 292 kts | 27° |
| 2026-05-07 12:44 | 39.22134 | 116.25082 | 11027 ft | 285 kts | 27° |
| 2026-05-07 12:45 | 39.23815 | 116.26387 | 10799 ft | 279 kts | 27° |
| 2026-05-07 12:45 | 39.25461 | 116.27667 | 10553 ft | 274 kts | 27° |
| 2026-05-07 12:45 | 39.27078 | 116.28922 | 10309 ft | 269 kts | 27° |
| 2026-05-07 12:45 | 39.28684 | 116.30168 | 10088 ft | 271 kts | 27° |
| 2026-05-07 12:46 | 39.30311 | 116.31427 | 9822 ft | 273 kts | 27° |
| 2026-05-07 12:46 | 39.31937 | 116.32688 | 9543 ft | 273 kts | 27° |
| 2026-05-07 12:46 | 39.33562 | 116.33953 | 9277 ft | 273 kts | 27° |
| 2026-05-07 12:46 | 39.35184 | 116.35217 | 9023 ft | 272 kts | 28° |
| 2026-05-07 12:47 | 39.36806 | 116.36483 | 8765 ft | 272 kts | 28° |
| 2026-05-07 12:47 | 39.38419 | 116.37743 | 8500 ft | 271 kts | 28° |
| 2026-05-07 12:47 | 39.40033 | 116.39005 | 8244 ft | 271 kts | 28° |
| 2026-05-07 12:47 | 39.41644 | 116.40266 | 7992 ft | 271 kts | 28° |
| 2026-05-07 12:48 | 39.43255 | 116.41530 | 7736 ft | 270 kts | 28° |
| 2026-05-07 12:48 | 39.44860 | 116.42792 | 7484 ft | 269 kts | 28° |
| 2026-05-07 12:48 | 39.46444 | 116.44056 | 7240 ft | 266 kts | 30° |
| 2026-05-07 12:48 | 39.47969 | 116.45394 | 6988 ft | 263 kts | 32° |
| 2026-05-07 12:49 | 39.49439 | 116.46781 | 6745 ft | 260 kts | 33° |
| 2026-05-07 12:49 | 39.50890 | 116.48150 | 6475 ft | 253 kts | 33° |
| 2026-05-07 12:49 | 39.52280 | 116.49442 | 6202 ft | 238 kts | 33° |
| 2026-05-07 12:49 | 39.53591 | 116.50659 | 5943 ft | 226 kts | 33° |
| 2026-05-07 12:50 | 39.54424 | 116.51437 | 5784 ft | 220 kts | 33° |
| 2026-05-07 12:50 | 39.56061 | 116.52976 | 5700 ft | 217 kts | 33° |
| 2026-05-07 12:50 | 39.57306 | 116.54152 | 5561 ft | 223 kts | 33° |
| 2026-05-07 12:50 | 39.58562 | 116.55342 | 5303 ft | 223 kts | 33° |
| 2026-05-07 12:51 | 39.59808 | 116.56527 | 5041 ft | 220 kts | 34° |
| 2026-05-07 12:51 | 39.60624 | 116.57307 | 4877 ft | 221 kts | 33° |